Time;durP1;ratioP1;P1;durP2;ratioP2;P2;SDS_P1;SDS_P2;PMS_P1;PMS_P2;Temp;Humidity;BMP_temperature;BMP_pressure;BME280_temperature;BME280_humidity;BME280_pressure;Samples;Min_cycle;Max_cycle;Signal;HPM_P1;HPM_P2
2022/07/04 00:00:47;;;;;;;2.88;1.95;;;;;;;13.95;nan;101888.19;5033256;28;20405;-62
2022/07/04 00:03:12;;;;;;;2.20;1.80;;;;;;;13.88;nan;101876.91;5034286;28;20034;-61
2022/07/04 00:05:38;;;;;;;3.72;1.92;;;;;;;13.85;nan;101887.56;5034180;28;20040;-59
2022/07/04 00:08:03;;;;;;;3.83;2.10;;;;;;;13.79;nan;101893.03;5034051;28;20079;-61
2022/07/04 00:10:29;;;;;;;3.95;1.73;;;;;;;13.68;nan;101873.97;5034257;28;20040;-60
2022/07/04 00:12:54;;;;;;;5.05;1.70;;;;;;;13.36;nan;101822.00;5034481;28;20060;-60
2022/07/04 00:15:20;;;;;;;3.90;2.45;;;;;;;13.29;nan;101816.91;5032897;28;20034;-59
2022/07/04 00:17:45;;;;;;;6.13;2.85;;;;;;;-142.64;100.00;58178.75;5032773;28;20034;-59
2022/07/04 00:20:10;;;;;;;6.68;2.35;;;;;;;-142.64;100.00;58178.75;5033990;28;20393;-61
2022/07/04 00:22:36;;;;;;;5.65;2.40;;;;;;;-142.64;100.00;58178.75;5033814;28;20033;-60
2022/07/04 00:25:02;;;;;;;4.88;2.35;;;;;;;-142.64;100.00;58178.75;5032517;28;20064;-57
2022/07/04 00:27:27;;;;;;;8.52;2.72;;;;;;;-142.64;100.00;58178.75;5033714;28;20112;-58
2022/07/04 00:29:53;;;;;;;7.88;3.22;;;;;;;-142.64;100.00;58178.75;5032453;28;20049;-60
2022/07/04 00:32:18;;;;;;;5.97;3.17;;;;;;;13.15;nan;101800.56;5032613;28;20057;-60
2022/07/04 00:34:44;;;;;;;9.00;3.78;;;;;;;13.50;nan;101855.97;5033470;28;20033;-60
2022/07/04 00:37:09;;;;;;;4.75;3.10;;;;;;;13.56;nan;101861.09;5032593;28;20067;-62
2022/07/04 00:39:35;;;;;;;10.40;3.85;;;;;;;13.56;nan;101860.22;5031995;28;20041;-59
2022/07/04 00:42:01;;;;;;;5.38;4.18;;;;;;;13.14;nan;101786.47;5033980;28;20442;-60
2022/07/04 00:44:26;;;;;;;7.95;3.60;;;;;;;13.54;nan;101862.91;5033652;28;20037;-61
2022/07/04 00:46:51;;;;;;;10.43;4.13;;;;;;;13.28;nan;101815.19;5033340;28;20488;-60
2022/07/04 00:49:18;;;;;;;7.78;4.00;;;;;;;13.05;nan;101776.13;5033562;28;20029;-59
2022/07/04 00:51:45;;;;;;;9.85;4.55;;;;;;;13.13;nan;101789.16;5031977;28;20492;-61
2022/07/04 00:54:14;;;;;;;9.90;4.60;;;;;;;13.13;nan;101797.09;5032181;28;20429;-59
2022/07/04 00:56:41;;;;;;;6.95;4.32;;;;;;;13.47;nan;101856.06;5033208;28;20037;-58
2022/07/04 00:59:07;;;;;;;7.78;4.05;;;;;;;13.14;nan;101804.09;5033201;28;20044;-62
2022/07/04 01:01:34;;;;;;;10.93;4.05;;;;;;;13.40;nan;101846.53;5033095;28;20124;-61
2022/07/04 01:04:01;;;;;;;7.18;4.10;;;;;;;13.45;nan;101855.25;5031836;28;20085;-59
2022/07/04 01:06:27;;;;;;;5.43;3.55;;;;;;;13.05;nan;101793.78;5031880;28;20045;-61
2022/07/04 01:08:52;;;;;;;10.60;4.60;;;;;;;13.37;nan;101838.69;5031841;28;20584;-60
2022/07/04 01:11:17;;;;;;;7.55;3.78;;;;;;;13.08;nan;101793.69;5032913;28;20500;-59
2022/07/04 01:13:43;;;;;;;9.20;4.30;;;;;;;13.29;nan;101831.00;5031733;28;20025;-60
2022/07/04 01:16:10;;;;;;;9.68;4.20;;;;;;;12.97;nan;101778.09;5031438;28;20507;-60
2022/07/04 01:18:35;;;;;;;10.20;3.45;;;;;;;12.87;nan;101764.25;5032635;28;20388;-58
2022/07/04 01:21:01;;;;;;;8.02;3.78;;;;;;;13.28;nan;101838.97;5032563;28;20037;-61
2022/07/04 01:23:26;;;;;;;10.45;3.45;;;;;;;13.25;nan;101837.25;5032829;28;20083;-60
2022/07/04 01:25:52;;;;;;;5.70;3.50;;;;;;;13.24;nan;101822.31;5032635;28;20461;-61
2022/07/04 01:28:24;;;;;;;12.20;3.70;;;;;;;12.85;nan;101760.81;5031576;28;20544;-62
2022/07/04 01:30:49;;;;;;;8.23;3.17;;;;;;;13.18;nan;101814.56;5032438;28;20129;-60
2022/07/04 01:33:17;;;;;;;6.53;3.33;;;;;;;13.27;nan;101837.22;5032521;28;20459;-60
2022/07/04 01:35:43;;;;;;;6.10;3.00;;;;;;;12.90;nan;101764.19;5031282;28;20033;-60
2022/07/04 01:38:08;;;;;;;8.52;2.63;;;;;;;13.28;nan;101829.25;5032489;28;20116;-60
2022/07/04 01:40:33;;;;;;;7.75;2.80;;;;;;;13.14;nan;101804.97;5032784;28;20084;-62
2022/07/04 01:42:59;;;;;;;6.82;2.97;;;;;;;12.95;nan;101769.38;5032567;28;20029;-62
2022/07/04 01:45:24;;;;;;;7.55;3.33;;;;;;;13.34;nan;101823.78;5032287;28;20044;-60
2022/07/04 01:47:50;;;;;;;8.38;3.60;;;;;;;13.04;nan;101768.25;5032336;28;20037;-60
2022/07/04 01:50:15;;;;;;;5.93;3.30;;;;;;;13.07;nan;101779.59;5032516;28;20056;-60
2022/07/04 01:52:41;;;;;;;6.30;3.08;;;;;;;13.38;nan;101841.31;5031940;28;20034;-60
2022/07/04 01:55:08;;;;;;;7.00;2.58;;;;;;;13.04;nan;101771.75;5031293;28;20061;-61
2022/07/04 01:57:33;;;;;;;5.22;2.50;;;;;;;13.35;nan;101820.25;5032410;28;20500;-62
2022/07/04 02:02:42;;;;;;;7.45;2.80;;;;;;;12.97;nan;101747.25;5031188;28;20242;-59
2022/07/04 02:05:08;;;;;;;7.20;2.78;;;;;;;13.38;nan;101824.56;5032280;28;20524;-60
2022/07/04 02:07:33;;;;;;;8.90;3.22;;;;;;;13.01;nan;101757.75;5031805;28;20060;-59
2022/07/04 02:09:58;;;;;;;9.27;3.00;;;;;;;13.03;nan;101758.56;5032030;28;20046;-64
2022/07/04 02:15:08;;;;;;;10.30;3.03;;;;;;;13.44;nan;101820.00;5032006;28;20072;-60
2022/07/04 02:17:33;;;;;;;8.23;3.08;;;;;;;13.46;nan;101826.09;5032058;28;20057;-59
2022/07/04 02:19:59;;;;;;;7.20;3.40;;;;;;;13.05;nan;101738.28;5031984;28;20041;-60
2022/07/04 02:22:24;;;;;;;5.40;2.90;;;;;;;13.49;nan;101818.06;5032163;28;20037;-60
2022/07/04 02:24:49;;;;;;;5.72;3.10;;;;;;;13.32;nan;101788.59;5032122;28;20503;-59
2022/07/04 02:27:15;;;;;;;7.78;2.92;;;;;;;13.45;nan;101811.16;5032042;28;20492;-60
2022/07/04 02:29:40;;;;;;;11.63;3.42;;;;;;;13.08;nan;101754.03;5030937;28;20030;-60
2022/07/04 02:32:06;;;;;;;9.35;2.63;;;;;;;13.06;nan;101759.34;5032157;28;20099;-60
2022/07/04 02:34:32;;;;;;;5.63;3.08;;;;;;;13.44;nan;101821.75;5030809;28;20044;-59
2022/07/04 02:36:57;;;;;;;8.38;2.75;;;;;;;13.26;nan;101779.97;5031975;28;20364;-59
2022/07/04 02:39:24;;;;;;;6.55;2.47;;;;;;;13.20;nan;101761.63;5032056;28;20034;-60
2022/07/04 02:41:49;;;;;;;7.97;2.72;;;;;;;13.52;nan;101817.09;5031947;28;20124;-59
2022/07/04 02:44:15;;;;;;;12.73;4.05;;;;;;;13.15;nan;101752.97;5031693;28;20045;-60
2022/07/04 02:46:40;;;;;;;7.40;2.83;;;;;;;13.31;nan;101780.72;5032031;28;20388;-61
2022/07/04 02:49:05;;;;;;;9.07;3.45;;;;;;;13.57;nan;101806.41;5030608;28;20040;-59
2022/07/04 02:51:31;;;;;;;7.20;2.83;;;;;;;13.22;nan;101738.69;5030459;28;20045;-60
2022/07/04 02:53:56;;;;;;;8.85;3.30;;;;;;;13.23;nan;101743.03;5030782;28;20030;-60
2022/07/04 02:56:21;;;;;;;6.85;2.90;;;;;;;13.24;nan;101758.00;5030604;28;20033;-61
2022/07/04 02:58:47;;;;;;;9.43;3.60;;;;;;;13.51;nan;101804.81;5031755;28;20036;-60
2022/07/04 03:01:12;;;;;;;9.70;2.70;;;;;;;13.59;nan;101815.16;5031591;28;20045;-61
2022/07/04 03:03:39;;;;;;;14.00;3.17;;;;;;;13.25;nan;101765.03;5033423;28;20060;-60
2022/07/04 03:06:07;;;;;;;11.45;3.58;;;;;;;13.56;nan;101821.41;5035508;28;20033;-62
2022/07/04 03:08:32;;;;;;;9.18;3.00;;;;;;;13.52;nan;101820.63;5035335;28;20025;-59
2022/07/04 03:10:57;;;;;;;8.85;3.60;;;;;;;13.53;nan;101816.22;5035275;28;20171;-60
2022/07/04 03:13:24;;;;;;;11.73;3.63;;;;;;;13.19;nan;101755.47;5035150;28;20060;-61
2022/07/04 03:15:49;;;;;;;13.27;3.65;;;;;;;13.19;nan;101762.56;5035131;28;20044;-60
2022/07/04 03:18:15;;;;;;;9.43;3.40;;;;;;;13.13;nan;101760.09;5034079;28;20037;-60
2022/07/04 03:20:40;;;;;;;11.00;3.17;;;;;;;13.47;nan;101827.84;5035134;28;20464;-61
2022/07/04 03:23:05;;;;;;;7.93;3.17;;;;;;;13.33;nan;101802.69;5035064;28;20041;-60
2022/07/04 03:25:31;;;;;;;9.80;3.42;;;;;;;13.36;nan;101810.53;5034723;28;20107;-60
2022/07/04 03:27:56;;;;;;;9.38;3.42;;;;;;;13.40;nan;101825.38;5034924;28;20480;-61
2022/07/04 03:30:21;;;;;;;10.20;3.42;;;;;;;12.99;nan;101755.13;5034589;28;20038;-60
2022/07/04 03:32:47;;;;;;;9.27;3.22;;;;;;;13.37;nan;101823.69;5033661;28;20026;-62
2022/07/04 03:35:12;;;;;;;11.95;3.70;;;;;;;13.37;nan;101821.06;5034980;28;20038;-59
2022/07/04 03:37:37;;;;;;;12.70;3.47;;;;;;;13.16;nan;101786.44;5034889;28;20045;-60
2022/07/04 03:40:04;;;;;;;8.68;3.78;;;;;;;13.01;nan;101765.69;5033434;28;20032;-61
2022/07/04 03:42:29;;;;;;;10.48;4.10;;;;;;;13.32;nan;101828.25;5034483;28;20060;-60
2022/07/04 03:44:54;;;;;;;10.00;3.90;;;;;;;13.08;nan;101781.34;5034504;28;20532;-62
2022/07/04 03:47:20;;;;;;;11.38;3.95;;;;;;;13.29;nan;101815.13;5034705;28;20129;-60
2022/07/04 03:49:45;;;;;;;10.90;3.70;;;;;;;13.30;nan;101806.28;5034630;28;20520;-62
2022/07/04 03:52:10;;;;;;;11.60;3.75;;;;;;;13.09;nan;101788.38;5033273;28;20048;-60
2022/07/04 03:54:36;;;;;;;12.05;4.05;;;;;;;13.13;nan;101771.53;5034496;28;20476;-61
2022/07/04 03:57:01;;;;;;;9.23;3.80;;;;;;;13.50;nan;101840.09;5034338;28;20033;-61
2022/07/04 03:59:26;;;;;;;10.73;3.67;;;;;;;13.55;nan;101835.53;5034167;28;20037;-62
2022/07/04 04:01:52;;;;;;;14.13;4.20;;;;;;;13.58;nan;101840.75;5033270;28;20034;-61
2022/07/04 04:07:02;;;;;;;12.20;5.50;;;;;;;13.58;nan;101837.22;5034422;28;20136;-59
2022/07/04 04:09:27;;;;;;;12.52;4.18;;;;;;;13.67;nan;101847.53;5034128;28;20073;-62
2022/07/04 04:11:53;;;;;;;11.88;4.03;;;;;;;13.68;nan;101839.56;5033937;28;20037;-59
2022/07/04 04:14:18;;;;;;;11.57;4.22;;;;;;;13.40;nan;101796.28;5033050;28;20479;-59
2022/07/04 04:16:43;;;;;;;14.60;5.15;;;;;;;13.65;nan;101836.16;5034141;28;20435;-60
2022/07/04 04:19:09;;;;;;;11.48;4.30;;;;;;;13.41;nan;101795.41;5034352;28;20072;-60
2022/07/04 04:21:35;;;;;;;9.63;4.03;;;;;;;13.43;nan;101801.50;5033778;28;20120;-60
2022/07/04 04:24:01;;;;;;;12.38;4.70;;;;;;;13.67;nan;101850.19;5032448;28;20029;-63
2022/07/04 04:26:26;;;;;;;8.73;4.55;;;;;;;13.68;nan;101850.16;5032519;28;20498;-60
2022/07/04 04:28:52;;;;;;;10.57;5.00;;;;;;;13.60;nan;101838.91;5032729;28;20121;-62
2022/07/04 04:31:17;;;;;;;8.32;5.15;;;;;;;13.71;nan;101865.06;5032399;28;20045;-60
2022/07/04 04:33:43;;;;;;;10.63;5.38;;;;;;;13.42;nan;101791.84;5016052;28;20112;-61
2022/07/04 04:36:08;;;;;;;11.25;5.93;;;;;;;13.82;nan;101849.75;5033567;28;20087;-62
2022/07/04 04:38:33;;;;;;;12.95;5.75;;;;;;;13.86;nan;101841.69;5033599;28;20034;-61
2022/07/04 04:40:58;;;;;;;14.52;5.75;;;;;;;13.89;nan;101860.09;5033904;28;20041;-61
2022/07/04 04:43:24;;;;;;;9.75;5.90;;;;;;;13.53;nan;101801.22;5033717;28;20041;-60
2022/07/04 04:45:49;;;;;;;11.00;5.78;;;;;;;13.97;nan;101858.09;5033480;28;20046;-60
2022/07/04 04:48:14;;;;;;;11.27;5.78;;;;;;;14.01;nan;101880.03;5033771;28;20159;-60
2022/07/04 04:50:41;;;;;;;10.05;5.43;;;;;;;14.07;nan;101872.78;5033364;28;20029;-60
2022/07/04 04:53:06;;;;;;;12.85;5.43;;;;;;;14.17;nan;101885.75;5033406;28;20123;-60
2022/07/04 04:55:31;;;;;;;12.82;6.85;;;;;;;14.07;nan;101835.72;5032020;28;20081;-61
2022/07/04 04:57:57;;;;;;;10.23;5.90;;;;;;;14.48;nan;101882.13;5033275;28;20025;-60
2022/07/04 05:00:22;;;;;;;17.00;7.85;;;;;;;14.61;nan;101885.25;5033287;28;20039;-61
2022/07/04 05:02:48;;;;;;;13.15;6.53;;;;;;;13.75;nan;101724.69;5033048;28;20026;-63
2022/07/04 05:05:13;;;;;;;9.35;5.65;;;;;;;14.57;nan;101850.03;5033517;28;20065;-60
2022/07/04 05:07:38;;;;;;;11.50;5.40;;;;;;;14.96;nan;101890.25;5033007;28;20034;-60
2022/07/04 05:10:04;;;;;;;11.13;5.70;;;;;;;14.86;nan;101867.59;5031608;28;20048;-61
2022/07/04 05:12:30;;;;;;;10.25;4.65;;;;;;;15.09;nan;101888.91;5032914;28;20034;-62
2022/07/04 05:14:55;;;;;;;10.10;5.18;;;;;;;14.85;nan;101834.09;5032940;28;20102;-60
2022/07/04 05:17:21;;;;;;;14.07;5.47;;;;;;;15.24;nan;101884.84;5031423;28;20080;-62
2022/07/04 05:19:48;;;;;;;10.90;4.93;;;;;;;15.30;nan;101878.47;5033055;28;20033;-60
2022/07/04 05:22:14;;;;;;;12.23;5.35;;;;;;;15.05;nan;101836.03;5032708;28;20033;-60
2022/07/04 05:24:40;;;;;;;11.88;5.68;;;;;;;15.47;nan;101892.06;5032656;28;20477;-62
2022/07/04 05:27:06;;;;;;;13.27;5.28;;;;;;;15.50;nan;101876.03;5031794;28;20033;-60
2022/07/04 05:29:32;;;;;;;11.57;4.43;;;;;;;15.37;nan;101833.09;5032864;28;20076;-60
2022/07/04 05:31:57;;;;;;;11.32;4.25;;;;;;;15.86;nan;101889.69;5032616;28;20461;-61
2022/07/04 05:34:22;;;;;;;9.73;4.72;;;;;;;15.95;nan;101871.63;5032470;28;20045;-61
2022/07/04 05:36:48;;;;;;;11.43;4.70;;;;;;;16.22;nan;101888.31;5032522;28;20045;-60
2022/07/04 05:39:13;;;;;;;9.20;4.43;;;;;;;16.22;nan;101898.94;5032397;28;20116;-61
2022/07/04 05:41:38;;;;;;;8.07;4.07;;;;;;;16.32;nan;101894.97;5032408;28;20037;-61
2022/07/04 05:44:04;;;;;;;9.55;3.40;;;;;;;16.40;nan;101884.06;5032601;28;20044;-60
2022/07/04 05:46:29;;;;;;;6.63;3.33;;;;;;;16.46;nan;101894.44;5032546;28;20069;-60
2022/07/04 05:48:55;;;;;;;11.45;3.47;;;;;;;16.51;nan;101885.34;5032395;28;20041;-60
2022/07/04 05:51:20;;;;;;;7.60;2.97;;;;;;;16.60;nan;101887.69;5032094;28;20120;-61
2022/07/04 05:53:45;;;;;;;6.60;3.10;;;;;;;16.70;nan;101889.00;5032220;28;20057;-60
2022/07/04 05:56:11;;;;;;;5.57;2.88;;;;;;;16.78;nan;101886.91;5030919;28;20030;-60
2022/07/04 05:58:36;;;;;;;8.82;2.67;;;;;;;16.72;nan;101865.03;5031406;28;20374;-60
2022/07/04 06:01:01;;;;;;;7.03;2.83;;;;;;;16.75;nan;101852.47;5032412;28;20072;-61
2022/07/04 06:03:27;;;;;;;9.35;3.40;;;;;;;17.08;nan;101889.19;5032161;28;20069;-61
2022/07/04 06:05:53;;;;;;;9.32;3.33;;;;;;;17.14;nan;101889.81;5032203;28;20041;-60
2022/07/04 06:08:18;;;;;;;8.45;2.53;;;;;;;17.25;nan;101897.34;5032000;28;20087;-63
2022/07/04 06:10:44;;;;;;;3.17;1.88;;;;;;;17.31;nan;101900.59;5031943;28;20044;-61
2022/07/04 06:13:09;;;;;;;4.60;1.77;;;;;;;17.41;nan;101904.59;5032231;28;20129;-61
2022/07/04 06:15:34;;;;;;;3.72;1.90;;;;;;;17.34;nan;101894.25;5031046;28;20065;-62
2022/07/04 06:18:01;;;;;;;6.32;1.80;;;;;;;17.54;nan;101918.22;5032129;28;20033;-60
2022/07/04 06:20:26;;;;;;;2.95;1.88;;;;;;;17.70;nan;101916.63;5032141;28;20092;-61
2022/07/04 06:22:52;;;;;;;3.10;1.70;;;;;;;17.55;nan;101877.38;5032108;28;20476;-60
2022/07/04 06:25:19;;;;;;;3.33;1.77;;;;;;;17.97;nan;101922.50;5031512;28;20497;-61
2022/07/04 06:27:47;;;;;;;4.00;1.70;;;;;;;18.02;nan;101901.84;5031005;28;20473;-61
2022/07/04 06:30:13;;;;;;;2.85;1.65;;;;;;;18.18;nan;101918.00;5030694;28;20025;-61
2022/07/04 06:32:46;;;;;;;3.83;1.88;;;;;;;18.24;nan;101923.03;5030814;28;20033;-60
2022/07/04 06:37:57;;;;;;;3.88;1.45;;;;;;;18.30;nan;101920.09;5034080;28;20076;-61
2022/07/04 06:40:22;;;;;;;2.80;1.85;;;;;;;18.39;nan;101932.94;5034748;28;20068;-60
2022/07/04 06:42:49;;;;;;;3.78;1.45;;;;;;;18.06;nan;101874.13;5035874;28;20116;-60
2022/07/04 06:45:15;;;;;;;3.13;1.50;;;;;;;18.57;nan;101948.13;5034392;28;20037;-61
2022/07/04 06:47:40;;;;;;;2.85;1.58;;;;;;;18.46;nan;101929.06;5035515;28;20037;-61
2022/07/04 06:50:06;;;;;;;2.25;1.40;;;;;;;18.05;nan;101853.75;5035449;28;20316;-61
2022/07/04 06:52:32;;;;;;;2.25;1.30;;;;;;;18.71;nan;101971.47;5035428;28;20574;-62
2022/07/04 06:54:57;;;;;;;1.55;1.27;;;;;;;18.81;nan;101954.06;5035694;28;20037;-60
2022/07/04 06:57:22;;;;;;;2.72;1.20;;;;;;;18.98;nan;101959.44;5035264;28;20025;-60
2022/07/04 06:59:47;;;;;;;3.53;1.48;;;;;;;19.06;nan;101963.44;5035466;28;20030;-59
2022/07/04 07:02:13;;;;;;;2.42;1.38;;;;;;;19.04;nan;101951.13;5036274;28;20052;-61
2022/07/04 07:04:40;;;;;;;7.15;1.70;;;;;;;19.23;nan;101959.94;5034377;28;20478;-61
2022/07/04 07:07:05;;;;;;;3.67;1.88;;;;;;;18.97;nan;101907.03;5035589;28;20374;-61
2022/07/04 07:09:30;;;;;;;3.15;2.10;;;;;;;19.39;nan;101963.59;5035146;28;20052;-61
2022/07/04 07:11:56;;;;;;;3.85;1.98;;;;;;;19.52;nan;101956.69;5035071;28;20127;-59
2022/07/04 07:14:21;;;;;;;3.47;1.35;;;;;;;19.67;nan;101951.47;5034965;28;20523;-60
2022/07/04 07:16:47;;;;;;;1.35;1.23;;;;;;;19.69;nan;101962.94;5033619;28;20043;-59
2022/07/04 07:19:12;;;;;;;2.30;1.30;;;;;;;19.75;nan;101946.59;5033564;28;20064;-60
2022/07/04 07:21:37;;;;;;;2.15;1.52;;;;;;;19.92;nan;101967.94;5035163;28;20029;-60
2022/07/04 07:24:03;;;;;;;2.65;1.45;;;;;;;19.58;nan;101910.09;5033795;28;20041;-61
2022/07/04 07:26:29;;;;;;;1.30;1.20;;;;;;;19.99;nan;101969.34;5034829;28;20422;-59
2022/07/04 07:28:54;;;;;;;3.00;1.35;;;;;;;19.72;nan;101912.03;5033704;28;20473;-60
2022/07/04 07:31:19;;;;;;;3.88;1.40;;;;;;;20.00;nan;101974.59;5035276;28;20037;-59
2022/07/04 07:33:45;;;;;;;2.55;1.30;;;;;;;19.67;nan;101923.81;5036883;28;20033;-61
2022/07/04 07:36:10;;;;;;;1.50;1.38;;;;;;;20.13;nan;101978.34;5054741;28;20500;-60
2022/07/04 07:38:35;;;;;;;3.50;1.30;;;;;;;20.32;nan;101972.00;5054658;28;20033;-60
2022/07/04 07:41:01;;;;;;;1.63;1.10;;;;;;;20.62;nan;101978.34;5054575;28;20064;-59
2022/07/04 07:43:26;;;;;;;1.63;1.20;;;;;;;21.00;nan;101982.38;5047281;28;20408;-60
2022/07/04 07:45:52;;;;;;;1.92;1.25;;;;;;;21.22;nan;101949.88;5034488;28;20026;-61
2022/07/04 07:48:17;;;;;;;3.13;1.33;;;;;;;21.91;nan;101998.41;5033969;28;20111;-60
2022/07/04 07:50:42;;;;;;;1.30;1.00;;;;;;;22.39;nan;102006.06;5037162;28;20127;-57
2022/07/04 07:53:08;;;;;;;2.55;1.02;;;;;;;22.93;nan;101999.00;5034055;28;20064;-60
2022/07/04 07:55:33;;;;;;;2.92;1.00;;;;;;;23.14;nan;101967.19;5033276;28;20041;-60
2022/07/04 07:57:59;;;;;;;2.47;1.30;;;;;;;23.08;nan;101926.44;5031899;28;20048;-60
2022/07/04 08:00:25;;;;;;;5.00;1.23;;;;;;;23.65;nan;102023.75;5033664;28;20037;-59
2022/07/04 08:05:34;;;;;;;1.92;0.82;;;;;;;23.29;nan;102035.97;5033955;28;20056;-60
2022/07/04 08:08:00;;;;;;;1.48;1.30;;;;;;;22.81;nan;101966.72;5032936;28;20029;-60
2022/07/04 08:10:25;;;;;;;1.48;1.00;;;;;;;23.14;nan;102033.47;5034133;28;20476;-60
2022/07/04 08:12:51;;;;;;;1.88;1.00;;;;;;;22.78;nan;101991.94;5034345;28;20037;-61
2022/07/04 08:15:17;;;;;;;2.40;1.15;;;;;;;22.61;nan;102040.44;5032766;28;20124;-60
2022/07/04 08:17:42;;;;;;;3.28;1.52;;;;;;;22.26;nan;102033.75;5033817;28;20121;-61
2022/07/04 08:20:08;;;;;;;2.78;1.25;;;;;;;22.05;nan;102035.06;5032880;28;20464;-60
2022/07/04 08:22:34;;;;;;;2.33;1.30;;;;;;;21.81;nan;102048.13;5032838;28;20045;-60
2022/07/04 08:24:59;;;;;;;2.60;1.17;;;;;;;21.67;nan;102046.28;5033577;28;20111;-61
2022/07/04 08:27:24;;;;;;;1.40;1.30;;;;;;;21.75;nan;102046.66;5032679;28;20493;-60
2022/07/04 08:29:49;;;;;;;4.82;1.70;;;;;;;21.53;nan;101989.09;5033682;28;20040;-59
2022/07/04 08:32:15;;;;;;;4.50;1.20;;;;;;;21.97;nan;102040.06;5032311;28;20041;-60
2022/07/04 08:34:42;;;;;;;3.30;1.13;;;;;;;22.21;nan;102055.47;5033928;28;20038;-60
2022/07/04 08:37:08;;;;;;;1.67;1.30;;;;;;;21.88;nan;102013.81;5033646;28;20132;-61
2022/07/04 08:39:33;;;;;;;1.42;1.13;;;;;;;21.64;nan;102006.25;5032458;28;20124;-60
2022/07/04 08:42:03;;;;;;;4.38;1.38;;;;;;;21.63;nan;101979.53;5033633;28;20030;-60
2022/07/04 08:44:29;;;;;;;4.50;1.33;;;;;;;22.08;nan;102064.38;5033431;28;20044;-60
2022/07/04 08:46:54;;;;;;;3.33;1.30;;;;;;;21.82;nan;102012.31;5032056;28;20034;-59
2022/07/04 08:49:24;;;;;;;1.90;0.95;;;;;;;22.27;nan;102075.72;5031902;28;20033;-60
2022/07/04 08:51:57;;;;;;;2.67;1.42;;;;;;;21.94;nan;102008.94;5015771;28;20071;-60
2022/07/04 08:59:54;;;;;;;3.58;1.10;;;;;;;22.70;nan;102031.84;5032211;28;20048;-60
2022/07/04 09:02:20;;;;;;;1.27;0.95;;;;;;;23.10;nan;102081.13;5031911;28;20025;-60
2022/07/04 09:04:45;;;;;;;2.55;1.27;;;;;;;23.47;nan;102079.59;5033172;28;20034;-61
2022/07/04 09:07:12;;;;;;;2.30;1.40;;;;;;;23.75;nan;102057.97;5015367;28;20037;-59
2022/07/04 09:09:39;;;;;;;2.35;1.73;;;;;;;24.20;nan;102082.69;5031649;28;20078;-60
2022/07/04 09:12:04;;;;;;;2.53;1.20;;;;;;;24.56;nan;102080.09;5031686;28;20060;-60
2022/07/04 09:14:30;;;;;;;1.25;0.90;;;;;;;24.61;nan;102033.00;5033026;28;20477;-60
2022/07/04 09:16:56;;;;;;;2.70;1.10;;;;;;;25.16;nan;102053.22;5031656;28;20072;-60
2022/07/04 09:19:21;;;;;;;2.10;0.93;;;;;;;25.81;nan;102050.97;5032881;28;20030;-61
2022/07/04 09:21:48;;;;;;;1.55;0.98;;;;;;;26.58;nan;102069.16;5032955;28;20045;-62
2022/07/04 09:24:13;;;;;;;4.70;1.20;;;;;;;27.07;nan;102057.06;5032389;28;20025;-60
2022/07/04 09:26:45;;;;;;;2.15;1.20;;;;;;;26.66;nan;102093.69;5031564;28;20129;-60
2022/07/04 09:29:11;;;;;;;4.05;1.13;;;;;;;25.42;nan;102097.13;5031453;28;20029;-59
2022/07/04 09:31:37;;;;;;;2.13;1.25;;;;;;;24.40;nan;102079.47;5031277;28;20060;-60
2022/07/04 09:34:05;;;;;;;2.22;1.13;;;;;;;24.02;nan;102093.72;5031269;28;20374;-59
2022/07/04 09:36:32;;;;;;;4.53;1.23;;;;;;;23.91;nan;102049.69;5031002;28;20033;-61
2022/07/04 09:39:11;;;;;;;1.63;1.05;;;;;;;24.36;nan;102078.81;5032369;28;20033;-59
2022/07/04 09:41:55;;;;;;;1.63;1.20;;;;;;;24.31;nan;102082.81;5032211;28;20481;-60
2022/07/04 09:44:26;;;;;;;3.35;1.17;;;;;;;24.58;nan;102087.06;5032638;28;20587;-59
2022/07/04 09:46:52;;;;;;;2.05;1.05;;;;;;;24.95;nan;102088.03;5032362;28;20495;-60
2022/07/04 09:49:17;;;;;;;2.22;1.20;;;;;;;25.92;nan;102090.63;5031038;28;20034;-59
2022/07/04 09:51:50;;;;;;;3.10;1.42;;;;;;;26.67;nan;102081.06;5032243;28;20491;-59
2022/07/04 09:54:18;;;;;;;4.30;1.05;;;;;;;27.14;nan;102088.03;5032468;28;20100;-60
2022/07/04 09:56:45;;;;;;;1.48;0.77;;;;;;;27.52;nan;102087.59;5032327;28;20030;-59
2022/07/04 09:59:11;;;;;;;1.73;1.00;;;;;;;26.97;nan;102081.28;5032085;28;20038;-61
2022/07/04 10:01:36;;;;;;;2.22;1.00;;;;;;;26.14;nan;102045.69;5032144;28;20602;-60
2022/07/04 10:04:03;;;;;;;1.73;1.05;;;;;;;25.69;nan;102085.13;5030714;28;20033;-60
2022/07/04 10:06:35;;;;;;;1.05;0.70;;;;;;;26.09;nan;102076.69;5032098;28;20021;-61
2022/07/04 10:09:09;;;;;;;3.88;1.10;;;;;;;26.93;nan;102085.25;5032114;28;20037;-61
2022/07/04 10:11:35;;;;;;;1.90;0.93;;;;;;;27.18;nan;102097.59;5032008;28;20052;-62
2022/07/04 10:14:01;;;;;;;4.43;1.08;;;;;;;27.48;nan;102086.97;5035912;28;20473;-60
2022/07/04 10:16:27;;;;;;;2.35;1.08;;;;;;;27.51;nan;102085.84;5033986;28;20049;-60
2022/07/04 10:18:54;;;;;;;1.38;0.90;;;;;;;27.47;nan;102052.78;5034545;28;20064;-59
2022/07/04 10:21:20;;;;;;;3.83;1.08;;;;;;;27.51;nan;102092.13;5034615;28;20205;-60
2022/07/04 10:23:45;;;;;;;1.23;0.82;;;;;;;27.54;nan;102093.72;5034079;28;20385;-61
2022/07/04 10:26:11;;;;;;;1.63;0.80;;;;;;;27.26;nan;102044.59;5042686;28;20531;-59
2022/07/04 10:28:37;;;;;;;2.50;0.90;;;;;;;27.59;nan;102086.06;5034287;28;20036;-60
2022/07/04 10:31:03;;;;;;;3.53;1.00;;;;;;;28.09;nan;102052.88;5034120;28;20584;-60
2022/07/04 10:33:29;;;;;;;1.20;0.70;;;;;;;28.49;nan;102052.91;5034815;28;20045;-61
2022/07/04 10:36:03;;;;;;;0.82;0.70;;;;;;;27.57;nan;102042.94;5035588;28;20040;-60
2022/07/04 10:38:30;;;;;;;1.90;0.90;;;;;;;26.19;nan;102034.53;5033189;28;20115;-59
2022/07/04 10:41:06;;;;;;;2.30;0.90;;;;;;;26.02;nan;102021.47;5033168;28;20072;-59
2022/07/04 10:43:40;;;;;;;1.42;0.65;;;;;;;27.28;nan;102094.03;5035010;28;20042;-59
2022/07/04 10:46:06;;;;;;;1.38;0.80;;;;;;;27.66;nan;102088.13;5035965;28;20029;-60
2022/07/04 10:48:32;;;;;;;1.58;0.80;;;;;;;28.29;nan;102079.06;5035683;28;20067;-61
2022/07/04 10:51:05;;;;;;;2.25;0.80;;;;;;;27.59;nan;102094.19;5035441;28;20065;-61
2022/07/04 10:53:32;;;;;;;1.92;0.80;;;;;;;26.27;nan;102075.25;5035882;28;20033;-61
2022/07/04 10:56:19;;;;;;;2.25;1.05;;;;;;;26.61;nan;102079.72;5033993;28;20037;-61
2022/07/04 10:58:45;;;;;;;4.47;0.90;;;;;;;27.29;nan;102044.34;5035539;28;20044;-60
2022/07/04 11:01:14;;;;;;;1.27;0.80;;;;;;;27.69;nan;102013.97;5035399;28;20108;-59
2022/07/04 11:03:50;;;;;;;1.48;0.70;;;;;;;28.84;nan;102082.31;5035362;28;20037;-60
2022/07/04 11:06:38;;;;;;;1.92;0.98;;;;;;;29.31;nan;102083.44;5033936;28;20029;-60
2022/07/04 11:09:12;;;;;;;2.30;0.70;;;;;;;29.52;nan;102070.63;5035183;28;20045;-60
2022/07/04 11:11:58;;;;;;;3.13;0.75;;;;;;;28.63;nan;102049.00;5035208;28;20029;-59
2022/07/04 11:14:30;;;;;;;1.60;0.70;;;;;;;27.94;nan;102076.66;5033821;28;20113;-61
2022/07/04 11:16:55;;;;;;;2.10;0.80;;;;;;;27.42;nan;102024.44;5035007;28;20068;-60
2022/07/04 11:19:21;;;;;;;1.48;0.85;;;;;;;27.89;nan;102064.53;5034927;28;20503;-58
2022/07/04 11:21:47;;;;;;;1.90;0.70;;;;;;;28.18;nan;102053.91;5035010;28;20033;-59
2022/07/04 11:24:12;;;;;;;1.63;0.70;;;;;;;28.85;nan;102010.88;5033162;28;20115;-59
2022/07/04 11:26:38;;;;;;;2.03;0.85;;;;;;;29.62;nan;102065.22;5033591;28;20100;-59
2022/07/04 11:29:03;;;;;;;2.78;0.75;;;;;;;29.59;nan;102031.09;5033553;28;20045;-59
2022/07/04 11:31:39;;;;;;;2.47;0.90;;;;;;;30.28;nan;102072.41;5033247;28;20037;-58
2022/07/04 11:34:05;;;;;;;1.55;0.60;;;;;;;29.56;nan;102074.78;5033761;28;20030;-59
2022/07/04 11:36:30;;;;;;;1.67;0.93;;;;;;;29.51;nan;102026.34;5033196;28;20042;-60
2022/07/04 11:39:01;;;;;;;1.35;0.85;;;;;;;29.62;nan;102032.66;5033292;28;20041;-61
2022/07/04 11:47:06;;;;;;;2.13;0.80;;;;;;;30.91;nan;102072.63;5034692;28;20116;-60
2022/07/04 11:49:32;;;;;;;1.30;0.90;;;;;;;30.70;nan;102066.56;5034316;28;20083;-60
2022/07/04 11:51:58;;;;;;;1.48;0.80;;;;;;;30.32;nan;102057.53;5034305;28;20045;-60
2022/07/04 11:54:23;;;;;;;1.95;0.70;;;;;;;30.29;nan;102046.09;5031000;28;20492;-61
2022/07/04 11:56:49;;;;;;;1.42;0.73;;;;;;;30.79;nan;102069.25;5033155;28;20044;-58
2022/07/04 11:59:16;;;;;;;1.05;0.80;;;;;;;30.74;nan;102068.81;5032772;28;20477;-60